createdAt,value
2022-10-25T00:01:21.808Z,99813.41
2022-10-25T00:06:23.362Z,99810.69
2022-10-25T00:11:26.500Z,99814.09
2022-10-25T00:16:29.802Z,99820.28
2022-10-25T00:21:31.357Z,99821.44
2022-10-25T00:26:32.713Z,99816.59
2022-10-25T00:31:34.119Z,99828.34
2022-10-25T00:36:35.510Z,99827.50
2022-10-25T00:41:37.029Z,99824.88
2022-10-25T00:46:38.420Z,99823.00
2022-10-25T00:51:42.777Z,99829.97
2022-10-25T00:56:44.189Z,99831.53
2022-10-25T01:01:45.670Z,99832.13
2022-10-25T01:06:48.944Z,99828.81
2022-10-25T01:11:50.362Z,99819.81
2022-10-25T01:17:29.105Z,99820.16
2022-10-25T01:22:43.233Z,99810.53
2022-10-25T01:27:51.153Z,99808.53
2022-10-25T01:33:22.717Z,99819.34
2022-10-25T01:38:36.921Z,99816.81
2022-10-25T01:43:50.829Z,99823.13
2022-10-25T01:48:58.189Z,99816.59
2022-10-25T01:53:59.552Z,99814.56
2022-10-25T01:59:14.041Z,99815.19
2022-10-25T02:04:27.876Z,99817.66
2022-10-25T02:10:03.493Z,99816.25
2022-10-25T02:15:17.785Z,99822.53
2022-10-25T02:20:19.208Z,99814.94
2022-10-25T02:25:21.110Z,99825.13
2022-10-25T02:30:22.467Z,99820.28
2022-10-25T02:35:23.833Z,99823.69
2022-10-25T02:40:25.187Z,99825.34
2022-10-25T02:45:26.546Z,99821.81
2022-10-25T02:50:27.922Z,99820.38
2022-10-25T02:55:29.293Z,99818.38
2022-10-25T03:00:30.678Z,99821.31
2022-10-25T03:05:32.070Z,99821.69
2022-10-25T03:10:36.663Z,99836.16
2022-10-25T03:15:38.028Z,99841.47
2022-10-25T03:20:39.424Z,99839.94
2022-10-25T03:25:40.829Z,99843.13
2022-10-25T03:30:42.533Z,99856.84
2022-10-25T03:35:43.896Z,99852.25
2022-10-25T03:40:45.253Z,99852.97
2022-10-25T03:45:46.612Z,99852.59
2022-10-25T03:50:48.011Z,99857.38
2022-10-25T03:55:49.783Z,99869.53
2022-10-25T04:00:51.195Z,99868.72
2022-10-25T04:05:52.615Z,99864.34
2022-10-25T04:10:53.976Z,99882.69
2022-10-25T04:15:55.337Z,99877.22
2022-10-25T04:20:57.996Z,99893.25
2022-10-25T04:25:59.416Z,99892.78
2022-10-25T04:31:00.768Z,99890.38
2022-10-25T04:36:02.159Z,99899.94
2022-10-25T04:41:03.525Z,99897.44
2022-10-25T04:46:04.917Z,99909.38
2022-10-25T04:51:06.291Z,99898.78
2022-10-25T04:56:12.385Z,99896.56
2022-10-25T05:01:15.033Z,99897.97
2022-10-25T05:06:18.149Z,99904.25
2022-10-25T05:11:21.528Z,99904.75
2022-10-25T05:16:24.402Z,99904.50
2022-10-25T05:21:28.291Z,99906.63
2022-10-25T05:26:30.093Z,99912.94
2022-10-25T05:31:31.573Z,99911.03
2022-10-25T05:36:33.310Z,99916.59
2022-10-25T05:41:37.018Z,99919.81
2022-10-25T05:46:38.687Z,99923.25
2022-10-25T05:51:40.041Z,99929.97
2022-10-25T05:56:41.719Z,99935.44
2022-10-25T06:01:44.435Z,99939.59
2022-10-25T06:06:46.609Z,99943.38
2022-10-25T06:11:47.964Z,99949.78
2022-10-25T06:16:49.357Z,99947.91
2022-10-25T06:21:50.747Z,99986.63
2022-10-25T06:26:52.114Z,99985.09
2022-10-25T06:31:53.516Z,99989.25
2022-10-25T06:36:54.870Z,99993.03
2022-10-25T06:41:56.234Z,99997.44
2022-10-25T06:52:21.556Z,99999.09
2022-10-25T06:57:22.937Z,99993.41
2022-10-25T07:02:24.428Z,100006.19
2022-10-25T07:07:25.896Z,100005.97
2022-10-25T07:12:27.253Z,99997.56
2022-10-25T07:17:28.616Z,100005.72
2022-10-25T07:22:29.973Z,100010.13
2022-10-25T07:27:32.099Z,100002.41
2022-10-25T07:32:33.481Z,100019.94
2022-10-25T07:37:34.848Z,100021.88
2022-10-25T07:42:36.204Z,100027.06
2022-10-25T07:47:37.569Z,100028.75
2022-10-25T07:52:38.990Z,100028.75
2022-10-25T07:57:40.393Z,100025.66
2022-10-25T08:02:42.602Z,100025.91
2022-10-25T08:07:44.133Z,100032.00
2022-10-25T08:12:45.646Z,100021.72
2022-10-25T08:17:47.213Z,100045.66
2022-10-25T08:22:48.713Z,100041.66
2022-10-25T08:27:50.090Z,100043.28
2022-10-25T08:32:51.616Z,100045.78
2022-10-25T08:37:53.021Z,100047.69
2022-10-25T08:43:19.114Z,100055.66
2022-10-25T08:48:21.896Z,100057.75
2022-10-25T08:53:26.005Z,100057.53
2022-10-25T08:58:33.345Z,100058.84
2022-10-25T09:03:34.754Z,100067.84
2022-10-25T09:09:15.830Z,100062.09
2022-10-25T09:14:32.332Z,100066.13
2022-10-25T09:19:42.462Z,100056.19
2022-10-25T09:24:55.376Z,100074.78
2022-10-25T09:30:05.088Z,100067.28
2022-10-25T09:35:20.788Z,100080.91
2022-10-25T09:45:30.301Z,100076.69
2022-10-25T09:50:44.354Z,100084.13
2022-10-25T09:55:58.262Z,100091.19
2022-10-25T10:01:04.580Z,100090.69
2022-10-25T10:06:15.963Z,100090.91
2022-10-25T10:16:23.824Z,100094.34
2022-10-25T10:21:25.216Z,100092.31
2022-10-25T10:26:31.664Z,100107.53
2022-10-25T10:31:35.741Z,100108.91
2022-10-25T10:36:37.139Z,100103.59
2022-10-25T10:41:38.541Z,100105.28
2022-10-25T10:46:46.390Z,100109.28
2022-10-25T10:51:47.762Z,100104.56
2022-10-25T10:57:05.159Z,100105.88
2022-10-25T11:02:31.110Z,100101.81
2022-10-25T11:07:34.322Z,100101.94
2022-10-25T11:12:40.197Z,100120.56
2022-10-25T11:17:49.743Z,100116.06
2022-10-25T11:22:57.117Z,100111.91
2022-10-25T11:28:22.899Z,100120.00
2022-10-25T11:33:29.257Z,100127.75
2022-10-25T11:38:55.364Z,100129.03
2022-10-25T11:44:41.747Z,100115.72
2022-10-25T11:49:57.073Z,100130.69
2022-10-25T11:55:21.893Z,100134.16
2022-10-25T12:00:24.525Z,100120.72
2022-10-25T12:05:31.323Z,100120.00
2022-10-25T12:10:35.977Z,100125.56
2022-10-25T12:15:46.462Z,100129.03
2022-10-25T12:20:47.958Z,100128.44
2022-10-25T12:26:00.597Z,100128.31
2022-10-25T12:31:06.936Z,100120.94
2022-10-25T12:36:38.310Z,100127.94
2022-10-25T12:41:40.169Z,100124.50
2022-10-25T12:46:51.344Z,100123.31
2022-10-25T12:51:57.034Z,100123.75
2022-10-25T12:57:27.870Z,100117.72
2022-10-25T13:03:10.227Z,100112.13
2022-10-25T13:08:11.987Z,100132.91
2022-10-25T13:13:17.879Z,100111.88
2022-10-25T13:18:34.423Z,100121.88
2022-10-25T13:23:55.981Z,100119.84
2022-10-25T13:28:59.620Z,100117.91
2022-10-25T13:34:12.846Z,100124.81
2022-10-25T13:39:16.120Z,100125.31
2022-10-25T13:44:26.822Z,100126.47
2022-10-25T13:49:34.885Z,100131.84
2022-10-25T13:54:45.653Z,100140.03
2022-10-25T13:59:49.884Z,100131.75
2022-10-25T14:04:51.350Z,100134.00
2022-10-25T14:09:53.273Z,100135.44
2022-10-25T14:15:15.169Z,100133.28
2022-10-25T14:20:29.545Z,100140.78
2022-10-25T14:25:31.924Z,100136.50
2022-10-25T14:30:40.187Z,100147.66
2022-10-25T14:35:49.229Z,100152.03
2022-10-25T14:41:01.101Z,100142.41
2022-10-25T14:46:15.928Z,100151.69
2022-10-25T14:51:21.580Z,100141.94
2022-10-25T14:56:33.399Z,100141.59
2022-10-25T15:01:34.865Z,100138.97
2022-10-25T15:06:36.337Z,100142.50
2022-10-25T15:11:37.705Z,100144.91
2022-10-25T15:16:43.853Z,100155.47
2022-10-25T15:21:46.637Z,100156.31
2022-10-25T15:27:05.642Z,100154.25
2022-10-25T15:32:09.310Z,100154.16
2022-10-25T15:37:12.217Z,100143.97
2022-10-25T15:42:15.342Z,100132.69
2022-10-25T15:47:29.172Z,100143.50
2022-10-25T15:52:30.618Z,100147.75
2022-10-25T15:57:32.016Z,100141.72
2022-10-25T16:02:33.373Z,100153.94
2022-10-25T16:07:34.736Z,100148.34
2022-10-25T16:12:36.109Z,100142.38
2022-10-25T16:17:37.485Z,100156.50
2022-10-25T16:22:38.850Z,100155.19
2022-10-25T16:27:41.082Z,100157.72
2022-10-25T16:32:42.509Z,100163.16
2022-10-25T16:37:43.875Z,100173.03
2022-10-25T16:42:45.408Z,100170.06
2022-10-25T16:47:46.930Z,100170.16
2022-10-25T16:52:51.425Z,100183.13
2022-10-25T16:57:52.819Z,100186.19
2022-10-25T17:02:54.984Z,100196.97
2022-10-25T17:07:56.406Z,100198.66
2022-10-25T17:13:03.662Z,100200.91
2022-10-25T17:18:05.024Z,100210.16
2022-10-25T17:23:06.421Z,100212.28
2022-10-25T17:28:08.384Z,100219.91
2022-10-25T17:33:09.741Z,100214.06
2022-10-25T17:38:11.100Z,100221.41
2022-10-25T17:43:13.709Z,100223.31
2022-10-25T17:48:15.622Z,100224.59
2022-10-25T17:53:16.980Z,100227.22
2022-10-25T17:58:18.336Z,100224.94
2022-10-25T18:03:19.740Z,100232.19
2022-10-25T18:08:21.170Z,100235.84
2022-10-25T18:13:24.603Z,100237.28
2022-10-25T18:18:26.019Z,100233.50
2022-10-25T18:23:27.406Z,100232.38
2022-10-25T18:28:28.772Z,100241.78
2022-10-25T18:33:30.724Z,100243.06
2022-10-25T18:38:32.091Z,100237.25
2022-10-25T18:43:33.494Z,100235.09
2022-10-25T18:48:34.858Z,100232.25
2022-10-25T18:53:36.313Z,100237.94
2022-10-25T18:58:38.064Z,100232.72
2022-10-25T19:03:39.708Z,100233.28
2022-10-25T19:08:41.075Z,100238.75
2022-10-25T19:13:45.102Z,100240.94
2022-10-25T19:18:49.168Z,100232.72
2022-10-25T19:23:53.917Z,100233.41
2022-10-25T19:28:59.005Z,100229.59
2022-10-25T19:34:02.865Z,100233.75
2022-10-25T19:39:04.341Z,100233.09
2022-10-25T19:44:05.702Z,100236.34
2022-10-25T19:49:07.056Z,100235.72
2022-10-25T19:54:08.492Z,100245.59
2022-10-25T19:59:10.297Z,100251.03
2022-10-25T20:04:13.210Z,100247.25
2022-10-25T20:09:14.568Z,100244.75
2022-10-25T20:14:15.936Z,100251.03
2022-10-25T20:19:17.303Z,100256.34
2022-10-25T20:24:18.786Z,100256.34
2022-10-25T20:29:22.667Z,100254.44
2022-10-25T20:34:24.184Z,100256.97
2022-10-25T20:39:25.557Z,100244.00
2022-10-25T20:44:26.941Z,100253.00
2022-10-25T20:49:28.314Z,100254.97
2022-10-25T20:54:29.733Z,100259.50
2022-10-25T20:59:31.689Z,100263.09
2022-10-25T21:09:54.384Z,100265.66
2022-10-25T21:14:55.745Z,100260.44
2022-10-25T21:19:57.102Z,100271.25
2022-10-25T21:24:58.506Z,100272.41
2022-10-25T21:29:59.862Z,100270.75
2022-10-25T21:35:01.661Z,100271.72
2022-10-25T21:40:03.025Z,100272.63
2022-10-25T21:45:04.557Z,100269.25
2022-10-25T21:50:06.595Z,100277.25
2022-10-25T21:55:08.381Z,100280.47
2022-10-25T22:00:10.839Z,100277.16
2022-10-25T22:05:12.210Z,100275.16
2022-10-25T22:10:13.608Z,100278.09
2022-10-25T22:15:16.003Z,100278.53
2022-10-25T22:20:17.358Z,100267.72
2022-10-25T22:25:18.717Z,100271.25
2022-10-25T22:30:20.077Z,100270.59
2022-10-25T22:35:21.441Z,100274.63
2022-10-25T22:40:22.796Z,100271.44
2022-10-25T22:45:24.161Z,100272.09
2022-10-25T22:50:25.545Z,100270.66
2022-10-25T22:55:26.905Z,100272.56
2022-10-25T23:00:28.262Z,100266.50
2022-10-25T23:05:29.730Z,100272.34
2022-10-25T23:10:31.085Z,100285.91
2022-10-25T23:15:32.459Z,100277.09
2022-10-25T23:20:33.858Z,100275.28
2022-10-25T23:25:35.217Z,100273.91
2022-10-25T23:30:36.640Z,100261.50
2022-10-25T23:35:40.188Z,100262.41
2022-10-25T23:40:45.637Z,100265.34
2022-10-25T23:45:47.005Z,100270.66
2022-10-25T23:50:57.637Z,100275.28
2022-10-25T23:55:59.025Z,100267.34
